Time;durP1;ratioP1;P1;durP2;ratioP2;P2;SDS_P1;SDS_P2;PMS_P1;PMS_P2;Temp;Humidity;BMP_temperature;BMP_pressure;BME280_temperature;BME280_humidity;BME280_pressure;Samples;Min_cycle;Max_cycle;Signal;HPM_P1;HPM_P2
2021/08/11 00:00:20;;;;;;;2.80;2.50;;;13.20;99.90;;;;;;5097238;28;20027;-75
2021/08/11 00:02:46;;;;;;;6.13;2.72;;;13.20;99.90;;;;;;5097375;28;20042;-75
2021/08/11 00:05:12;;;;;;;2.72;2.45;;;12.70;99.90;;;;;;5097445;28;20020;-75
2021/08/11 00:07:38;;;;;;;2.47;2.25;;;12.40;99.90;;;;;;5097340;28;20055;-74
2021/08/11 00:10:06;;;;;;;5.82;2.17;;;12.40;99.90;;;;;;5097029;28;20036;-75
2021/08/11 00:12:32;;;;;;;2.08;1.98;;;12.80;99.90;;;;;;5097217;28;20046;-74
2021/08/11 00:14:58;;;;;;;2.65;2.10;;;12.90;99.90;;;;;;5095731;28;20024;-75
2021/08/11 00:17:23;;;;;;;3.90;2.25;;;12.80;99.90;;;;;;5097169;28;20031;-75
2021/08/11 00:19:50;;;;;;;3.15;2.85;;;12.50;99.90;;;;;;5097002;28;20052;-74
2021/08/11 00:22:16;;;;;;;2.60;2.20;;;13.00;99.90;;;;;;5095828;28;20070;-75
2021/08/11 00:24:42;;;;;;;2.47;2.28;;;12.80;99.90;;;;;;5097267;28;20024;-75
2021/08/11 00:27:08;;;;;;;2.70;2.42;;;12.20;99.90;;;;;;5096766;28;20024;-74
2021/08/11 00:29:34;;;;;;;2.47;2.28;;;12.10;99.90;;;;;;5096859;28;20739;-74
2021/08/11 00:32:00;;;;;;;3.00;2.28;;;12.70;99.90;;;;;;5096790;28;20019;-75
2021/08/11 00:34:27;;;;;;;4.85;2.75;;;12.20;99.90;;;;;;5096615;28;20048;-74
2021/08/11 00:36:54;;;;;;;2.88;2.40;;;12.50;99.90;;;;;;5096862;28;20080;-74
2021/08/11 00:39:20;;;;;;;2.30;2.08;;;12.70;99.90;;;;;;5096616;28;20471;-75
2021/08/11 00:41:46;;;;;;;2.53;2.20;;;12.10;99.90;;;;;;5095069;28;20028;-74
2021/08/11 00:44:13;;;;;;;2.17;2.05;;;12.80;99.90;;;;;;5096878;28;20410;-74
2021/08/11 00:46:43;;;;;;;2.00;1.90;;;12.50;99.90;;;;;;5096877;28;20129;-75
2021/08/11 00:49:15;;;;;;;7.28;2.10;;;12.00;99.90;;;;;;5096573;28;20095;-75
2021/08/11 00:51:42;;;;;;;3.45;2.13;;;12.00;99.90;;;;;;5096833;28;20023;-75
2021/08/11 00:54:09;;;;;;;6.38;2.65;;;12.10;99.90;;;;;;5096455;28;20024;-74
2021/08/11 00:56:37;;;;;;;4.30;2.17;;;12.40;99.90;;;;;;5096370;28;20024;-74
2021/08/11 00:59:05;;;;;;;3.08;2.78;;;12.40;99.90;;;;;;5098052;28;20036;-75
2021/08/11 01:01:34;;;;;;;5.78;2.60;;;12.00;99.90;;;;;;5099366;28;20132;-74
2021/08/11 01:04:02;;;;;;;2.95;2.28;;;12.00;99.90;;;;;;5100880;28;20027;-75
2021/08/11 01:06:30;;;;;;;8.93;2.88;;;12.40;99.90;;;;;;5100666;28;20020;-75
2021/08/11 01:08:57;;;;;;;3.95;2.30;;;11.80;99.90;;;;;;5100667;28;20028;-74
2021/08/11 01:11:25;;;;;;;3.50;2.22;;;12.10;99.90;;;;;;5100278;28;20031;-75
2021/08/11 01:13:51;;;;;;;7.30;1.67;;;11.70;99.90;;;;;;5100599;28;20028;-75
2021/08/11 01:16:18;;;;;;;3.67;2.97;;;12.00;99.90;;;;;;5100500;28;20031;-75
2021/08/11 01:18:44;;;;;;;2.38;1.90;;;11.80;99.90;;;;;;5100807;28;20110;-75
2021/08/11 01:21:14;;;;;;;3.88;2.40;;;11.70;99.90;;;;;;5100462;28;20056;-75
2021/08/11 01:23:53;;;;;;;3.15;2.38;;;11.90;99.90;;;;;;5100567;28;20480;-75
2021/08/11 01:26:49;;;;;;;4.93;2.13;;;11.80;99.90;;;;;;5098563;28;20016;-75
2021/08/11 01:29:19;;;;;;;7.55;2.85;;;11.70;99.90;;;;;;5100309;28;20055;-74
2021/08/11 01:31:57;;;;;;;2.47;2.28;;;12.00;99.90;;;;;;5100176;28;20052;-74
2021/08/11 01:34:42;;;;;;;5.60;2.45;;;12.10;99.90;;;;;;5099952;28;20062;-75
2021/08/11 01:37:13;;;;;;;6.25;2.53;;;12.00;99.90;;;;;;5100158;28;20472;-75
2021/08/11 01:39:43;;;;;;;3.42;2.20;;;11.70;99.90;;;;;;5100632;28;20527;-75
2021/08/11 01:42:32;;;;;;;2.35;2.15;;;12.00;99.90;;;;;;5099844;28;20024;-75
2021/08/11 01:45:19;;;;;;;2.22;2.13;;;11.80;99.90;;;;;;5098146;28;20032;-74
2021/08/11 01:47:52;;;;;;;;;;;12.20;99.90;;;;;;5100248;28;20028;-74
2021/08/11 01:50:20;;;;;;;4.75;2.25;;;11.50;99.90;;;;;;5099878;28;19950;-75
2021/08/11 01:52:48;;;;;;;2.35;2.15;;;11.70;99.90;;;;;;5099903;28;20437;-74
2021/08/11 01:55:15;;;;;;;3.25;2.22;;;11.30;99.90;;;;;;5097996;28;20023;-74
2021/08/11 01:57:50;;;;;;;2.05;1.95;;;11.80;99.90;;;;;;5100093;28;20032;-75
2021/08/11 02:00:17;;;;;;;2.80;2.38;;;11.60;99.90;;;;;;5099599;28;20028;-74
2021/08/11 02:02:45;;;;;;;1.92;1.83;;;11.80;99.90;;;;;;5099861;28;20024;-75
2021/08/11 02:05:12;;;;;;;4.15;2.40;;;11.40;99.90;;;;;;5099747;28;20435;-75
2021/08/11 02:07:40;;;;;;;2.20;2.00;;;11.60;99.90;;;;;;5099733;28;20453;-75
2021/08/11 02:10:08;;;;;;;1.88;1.77;;;11.50;99.90;;;;;;5098022;28;20035;-75
2021/08/11 02:12:34;;;;;;;2.50;2.30;;;11.30;99.90;;;;;;5099520;28;20501;-74
2021/08/11 02:15:00;;;;;;;1.90;1.80;;;11.30;99.90;;;;;;5099345;28;20016;-75
2021/08/11 02:17:26;;;;;;;2.00;1.90;;;11.10;99.90;;;;;;5099493;28;20028;-75
2021/08/11 02:19:53;;;;;;;2.75;2.55;;;11.20;99.90;;;;;;5099379;28;20031;-75
2021/08/11 02:22:19;;;;;;;3.35;2.45;;;11.30;99.90;;;;;;5099403;28;20387;-75
2021/08/11 02:24:45;;;;;;;2.58;2.38;;;11.50;99.90;;;;;;5097690;28;20032;-75
2021/08/11 02:27:35;;;;;;;4.45;2.65;;;11.00;99.90;;;;;;5099221;28;20387;-75
2021/08/11 02:30:13;;;;;;;2.92;2.60;;;11.20;99.90;;;;;;5099275;28;20054;-75
2021/08/11 02:32:48;;;;;;;3.75;2.03;;;10.90;99.90;;;;;;5097766;28;20032;-74
2021/08/11 02:35:28;;;;;;;4.32;2.10;;;11.50;99.90;;;;;;5099260;28;20127;-75
2021/08/11 02:38:23;;;;;;;3.63;2.25;;;10.80;99.90;;;;;;5098919;28;20024;-74
2021/08/11 02:41:07;;;;;;;4.40;2.60;;;11.10;99.90;;;;;;5097249;28;20089;-75
2021/08/11 02:43:38;;;;;;;2.55;1.90;;;11.30;99.90;;;;;;5098906;28;20069;-75
2021/08/11 02:46:15;;;;;;;2.25;2.13;;;11.60;99.90;;;;;;5098735;28;20518;-75
2021/08/11 02:48:42;;;;;;;3.28;2.10;;;11.30;99.90;;;;;;5098879;28;20024;-74
2021/08/11 02:51:09;;;;;;;2.10;1.90;;;11.20;99.90;;;;;;5098758;28;20026;-74
2021/08/11 02:53:37;;;;;;;2.13;1.90;;;11.10;99.90;;;;;;5097154;28;20020;-74
2021/08/11 02:56:03;;;;;;;5.25;2.92;;;11.10;99.90;;;;;;5097202;28;20372;-74
2021/08/11 02:58:31;;;;;;;1.90;1.80;;;11.00;99.90;;;;;;5098573;28;20510;-74
2021/08/11 03:00:58;;;;;;;1.90;1.80;;;11.70;99.90;;;;;;5097160;28;20391;-74
2021/08/11 03:03:24;;;;;;;2.20;2.03;;;11.20;99.90;;;;;;5098268;28;20030;-75
2021/08/11 03:05:50;;;;;;;4.93;1.75;;;10.80;99.90;;;;;;5098572;28;20020;-74
2021/08/11 03:08:17;;;;;;;2.75;2.45;;;11.10;99.90;;;;;;5098164;28;20020;-74
2021/08/11 03:10:43;;;;;;;5.53;1.98;;;10.70;99.90;;;;;;5098258;28;20035;-75
2021/08/11 03:13:12;;;;;;;2.40;2.17;;;11.00;99.90;;;;;;5098402;28;20482;-75
2021/08/11 03:15:41;;;;;;;2.78;1.88;;;11.00;99.90;;;;;;5098364;28;20383;-74
2021/08/11 03:18:08;;;;;;;1.73;1.63;;;11.00;99.90;;;;;;5098133;28;20032;-74
2021/08/11 03:20:34;;;;;;;2.22;1.95;;;10.20;99.90;;;;;;5098153;28;20032;-74
2021/08/11 03:23:00;;;;;;;3.97;1.88;;;10.80;99.90;;;;;;5098092;28;20024;-75
2021/08/11 03:25:26;;;;;;;2.08;1.90;;;10.40;99.90;;;;;;5097739;28;20017;-75
2021/08/11 03:27:52;;;;;;;2.05;1.75;;;11.00;99.90;;;;;;5097852;28;20369;-74
2021/08/11 03:30:18;;;;;;;2.72;2.13;;;10.80;99.90;;;;;;5098042;28;20049;-75
2021/08/11 03:32:43;;;;;;;4.97;1.83;;;10.50;99.90;;;;;;5097923;28;20055;-75
2021/08/11 03:35:09;;;;;;;2.40;2.20;;;11.10;99.90;;;;;;5098085;28;20048;-75
2021/08/11 03:37:35;;;;;;;3.53;2.25;;;10.80;99.90;;;;;;5097678;28;20092;-75
2021/08/11 03:40:01;;;;;;;3.40;2.03;;;10.50;99.90;;;;;;5097364;28;20695;-74
2021/08/11 03:42:27;;;;;;;2.00;1.80;;;10.60;99.90;;;;;;5097659;28;20016;-75
2021/08/11 03:44:53;;;;;;;3.80;1.67;;;10.10;99.90;;;;;;5097789;28;20021;-74
2021/08/11 03:47:18;;;;;;;11.15;1.85;;;10.80;99.90;;;;;;5097586;28;20042;-74
2021/08/11 03:49:46;;;;;;;1.77;1.67;;;10.80;99.90;;;;;;5096276;28;20099;-74
2021/08/11 03:52:12;;;;;;;2.22;1.88;;;10.50;99.90;;;;;;5096236;28;20039;-75
2021/08/11 03:54:38;;;;;;;1.73;1.63;;;10.90;99.90;;;;;;5096207;28;20016;-74
2021/08/11 03:57:04;;;;;;;6.03;2.30;;;10.30;99.90;;;;;;5097148;28;20207;-75
2021/08/11 03:59:30;;;;;;;2.72;2.33;;;10.10;99.90;;;;;;5097612;28;20024;-74
2021/08/11 04:01:56;;;;;;;2.17;2.00;;;10.10;99.90;;;;;;5095791;28;20025;-74
2021/08/11 04:04:22;;;;;;;2.83;2.10;;;10.60;99.90;;;;;;5097573;28;20430;-75
2021/08/11 04:06:48;;;;;;;2.85;2.65;;;10.80;99.90;;;;;;5097152;28;20081;-75
2021/08/11 04:09:14;;;;;;;1.98;1.75;;;10.40;99.90;;;;;;5097318;28;20043;-75
2021/08/11 04:11:40;;;;;;;1.90;1.80;;;10.70;99.90;;;;;;5097055;28;20035;-75
2021/08/11 04:14:06;;;;;;;6.63;2.65;;;10.40;99.90;;;;;;5097288;28;20059;-75
2021/08/11 04:16:32;;;;;;;1.90;1.80;;;10.50;99.90;;;;;;5097080;28;20035;-75
2021/08/11 04:18:58;;;;;;;2.35;2.10;;;10.40;99.90;;;;;;5097184;28;20023;-74
2021/08/11 04:21:23;;;;;;;2.97;1.80;;;10.40;99.90;;;;;;5096906;28;20052;-74
2021/08/11 04:23:49;;;;;;;4.68;1.98;;;10.40;99.90;;;;;;5097041;28;20152;-74
2021/08/11 04:26:15;;;;;;;6.90;1.77;;;10.20;99.90;;;;;;5096705;28;20020;-74
2021/08/11 04:28:41;;;;;;;3.08;2.53;;;10.70;99.90;;;;;;5097217;28;20027;-74
2021/08/11 04:31:07;;;;;;;2.60;2.08;;;10.40;99.90;;;;;;5096822;28;20388;-75
2021/08/11 04:33:33;;;;;;;2.20;2.00;;;10.20;99.90;;;;;;5096317;28;20028;-75
2021/08/11 04:35:59;;;;;;;3.45;1.67;;;10.10;99.90;;;;;;5096828;28;20197;-75
2021/08/11 04:38:24;;;;;;;3.85;2.00;;;10.30;99.90;;;;;;5096744;28;20032;-74
2021/08/11 04:40:50;;;;;;;2.03;1.80;;;10.30;99.90;;;;;;5096425;28;20030;-75
2021/08/11 04:43:16;;;;;;;2.13;1.90;;;10.30;99.90;;;;;;5096815;28;20106;-74
2021/08/11 04:45:43;;;;;;;8.13;2.30;;;9.80;99.90;;;;;;5096878;28;20027;-74
2021/08/11 04:48:09;;;;;;;2.28;2.08;;;10.00;99.90;;;;;;5097090;28;20024;-74
2021/08/11 04:50:35;;;;;;;2.08;1.83;;;10.10;99.90;;;;;;5096568;28;20043;-75
2021/08/11 04:53:02;;;;;;;2.80;2.60;;;10.20;99.90;;;;;;5096783;28;20024;-75
2021/08/11 04:55:28;;;;;;;2.13;1.92;;;10.00;99.90;;;;;;5096173;28;20032;-75
2021/08/11 04:57:53;;;;;;;4.25;2.15;;;10.30;99.90;;;;;;5096806;28;20032;-74
2021/08/11 05:00:19;;;;;;;4.38;2.40;;;10.10;99.90;;;;;;5096496;28;20552;-75
2021/08/11 05:02:45;;;;;;;6.47;2.55;;;10.40;99.90;;;;;;5096602;28;20020;-74
2021/08/11 05:05:11;;;;;;;2.20;2.00;;;10.50;99.90;;;;;;5096657;28;20132;-74
2021/08/11 05:07:37;;;;;;;3.03;2.42;;;10.30;99.90;;;;;;5096703;28;20017;-75
2021/08/11 05:10:04;;;;;;;2.80;2.47;;;10.20;99.90;;;;;;5096020;28;20024;-75
2021/08/11 05:12:30;;;;;;;5.72;2.13;;;10.50;99.90;;;;;;5096532;28;20021;-74
2021/08/11 05:14:57;;;;;;;2.22;2.03;;;10.10;99.90;;;;;;5096392;28;20042;-75
2021/08/11 05:17:23;;;;;;;3.22;2.25;;;11.00;99.90;;;;;;5096686;28;20020;-74
2021/08/11 05:19:53;;;;;;;2.53;2.28;;;10.30;99.90;;;;;;5096279;28;20377;-75
2021/08/11 05:22:21;;;;;;;4.53;2.20;;;10.10;99.90;;;;;;5096494;28;20021;-75
2021/08/11 05:24:47;;;;;;;1.80;1.70;;;10.60;99.90;;;;;;5096192;28;20020;-75
2021/08/11 05:27:14;;;;;;;1.70;1.60;;;10.20;99.90;;;;;;5096245;28;20484;-74
2021/08/11 05:29:42;;;;;;;1.30;1.30;;;9.80;99.90;;;;;;5096469;28;20095;-75
2021/08/11 05:32:09;;;;;;;1.90;1.80;;;10.20;99.90;;;;;;5096193;28;20020;-74
2021/08/11 05:34:35;;;;;;;4.40;1.98;;;10.30;99.90;;;;;;5096164;28;20093;-75
2021/08/11 05:37:01;;;;;;;2.25;2.13;;;10.40;99.90;;;;;;5096330;28;20028;-75
2021/08/11 05:39:27;;;;;;;3.50;2.03;;;10.70;99.90;;;;;;5096050;28;20357;-75
2021/08/11 05:41:53;;;;;;;4.07;2.30;;;10.80;99.90;;;;;;5095949;28;20031;-75
2021/08/11 05:44:19;;;;;;;6.40;2.63;;;10.60;99.90;;;;;;5096275;28;20476;-75
2021/08/11 05:46:45;;;;;;;4.28;1.95;;;10.70;99.90;;;;;;5099728;28;20035;-75
2021/08/11 05:49:11;;;;;;;2.63;2.00;;;11.00;99.90;;;;;;5099966;28;20023;-74
2021/08/11 05:51:38;;;;;;;4.35;2.38;;;10.90;99.90;;;;;;5099881;28;20480;-75
2021/08/11 05:54:05;;;;;;;2.22;2.03;;;11.20;99.90;;;;;;5099656;28;20117;-74
2021/08/11 05:56:31;;;;;;;3.08;1.90;;;11.20;99.90;;;;;;5099571;28;20061;-75
2021/08/11 05:58:57;;;;;;;3.00;2.72;;;11.50;99.90;;;;;;5099617;28;20024;-75
2021/08/11 06:01:24;;;;;;;3.40;2.70;;;11.50;99.90;;;;;;5099593;28;20043;-75
2021/08/11 06:04:02;;;;;;;2.30;2.10;;;11.80;99.90;;;;;;5099592;28;20020;-75
2021/08/11 06:06:28;;;;;;;4.88;2.10;;;12.50;99.90;;;;;;5099648;28;20380;-75
2021/08/11 06:08:55;;;;;;;2.17;1.95;;;12.70;99.90;;;;;;5099349;28;20028;-74
2021/08/11 06:11:21;;;;;;;2.95;2.20;;;12.60;99.90;;;;;;5099380;28;20039;-75
2021/08/11 06:13:47;;;;;;;4.10;2.38;;;12.50;99.90;;;;;;5098061;28;20047;-75
2021/08/11 06:16:12;;;;;;;2.25;2.03;;;13.50;99.90;;;;;;5099633;28;20381;-75
2021/08/11 06:18:38;;;;;;;4.13;2.38;;;12.90;99.90;;;;;;5099285;28;20028;-75
2021/08/11 06:21:04;;;;;;;4.78;2.53;;;13.20;99.90;;;;;;5099187;28;20042;-74
2021/08/11 06:23:30;;;;;;;6.63;2.97;;;13.60;99.90;;;;;;5099114;28;20384;-75
2021/08/11 06:25:56;;;;;;;3.47;2.22;;;13.60;99.90;;;;;;5098897;28;20031;-75
2021/08/11 06:28:22;;;;;;;2.60;2.08;;;13.90;99.90;;;;;;5099406;28;20024;-75
2021/08/11 06:30:48;;;;;;;2.70;2.42;;;13.90;99.90;;;;;;5099032;28;20024;-75
2021/08/11 06:33:14;;;;;;;3.20;2.63;;;14.10;99.90;;;;;;5099104;28;20024;-75
2021/08/11 06:35:40;;;;;;;2.45;2.25;;;14.70;99.90;;;;;;5099090;28;20058;-75
2021/08/11 06:38:07;;;;;;;2.75;2.55;;;15.00;99.90;;;;;;5098942;28;20107;-75
2021/08/11 06:40:37;;;;;;;5.40;4.15;;;15.50;99.90;;;;;;5098632;28;20020;-75
2021/08/11 06:43:04;;;;;;;10.23;3.97;;;15.80;99.90;;;;;;5098887;28;20028;-75
2021/08/11 06:45:30;;;;;;;9.13;3.50;;;15.20;99.90;;;;;;5098920;28;20021;-75
2021/08/11 06:47:56;;;;;;;4.15;3.42;;;16.10;99.90;;;;;;5097624;28;20024;-75
2021/08/11 06:50:22;;;;;;;6.65;4.45;;;16.60;99.90;;;;;;5098665;28;20035;-75
2021/08/11 06:52:48;;;;;;;5.05;4.28;;;17.20;99.90;;;;;;5098749;28;20024;-75
2021/08/11 06:55:16;;;;;;;4.47;3.80;;;17.70;99.90;;;;;;5098369;28;20028;-74
2021/08/11 06:57:46;;;;;;;5.38;3.25;;;17.50;99.90;;;;;;5098568;28;20019;-74
2021/08/11 07:00:12;;;;;;;7.78;3.80;;;;;;;;;;5098667;28;20103;-75
2021/08/11 07:02:40;;;;;;;5.20;3.72;;;;;;;;;;5098458;28;20027;-74
2021/08/11 07:05:09;;;;;;;4.35;3.83;;;;;;;;;;5097091;28;20479;-74
2021/08/11 07:07:35;;;;;;;6.95;4.13;;;;;;;;;;5098496;28;20534;-75
2021/08/11 07:10:02;;;;;;;4.40;4.00;;;19.00;99.90;;;;;;5097967;28;20479;-75
2021/08/11 07:12:28;;;;;;;7.68;3.95;;;19.30;99.90;;;;;;5098329;28;20099;-74
2021/08/11 07:14:54;;;;;;;4.75;3.70;;;19.60;99.90;;;;;;5098189;28;20063;-74
2021/08/11 07:17:20;;;;;;;5.53;3.90;;;19.60;99.90;;;;;;5098336;28;20020;-74
2021/08/11 07:19:46;;;;;;;4.85;3.13;;;;;;;;;;5098180;28;20099;-74
2021/08/11 07:22:13;;;;;;;6.28;3.15;;;;;;;;;;5098301;28;20567;-74
2021/08/11 07:24:38;;;;;;;3.97;3.50;;;20.20;99.90;;;;;;5097874;28;20027;-74
2021/08/11 07:27:05;;;;;;;8.57;3.75;;;20.40;99.90;;;;;;5097821;28;20024;-74
2021/08/11 07:29:32;;;;;;;5.65;3.83;;;;;;;;;;5097914;28;20020;-74
2021/08/11 07:31:58;;;;;;;10.35;4.03;;;;;;;;;;5097857;28;20020;-74
2021/08/11 07:34:24;;;;;;;7.25;3.58;;;;;;;;;;5097640;28;20506;-74
2021/08/11 07:36:50;;;;;;;3.10;2.80;;;;;;;;;;5098073;28;20045;-74
2021/08/11 07:39:16;;;;;;;3.50;2.50;;;;;;;;;;5097639;28;20024;-74
2021/08/11 07:41:42;;;;;;;3.33;2.63;;;;;;;;;;5097681;28;20032;-74
2021/08/11 07:44:09;;;;;;;3.15;2.85;;;;;;;;;;5097636;28;20103;-74
2021/08/11 07:46:35;;;;;;;3.65;2.60;;;;;;;;;;5097685;28;20024;-74
2021/08/11 07:49:01;;;;;;;6.72;3.20;;;;;;;;;;5097504;28;20536;-74
2021/08/11 07:51:28;;;;;;;4.18;3.22;;;;;;;;;;5097657;28;20564;-74
2021/08/11 07:53:54;;;;;;;3.05;2.75;;;;;;;;;;5097357;28;20035;-74
2021/08/11 07:56:20;;;;;;;5.22;3.67;;;;;;;;;;5097394;28;20103;-74
2021/08/11 07:58:47;;;;;;;3.03;2.45;;;;;;;;;;5097375;28;20067;-74
2021/08/11 08:01:13;;;;;;;4.88;2.83;;;;;;;;;;5097475;28;20055;-74
2021/08/11 08:03:40;;;;;;;3.22;2.92;;;;;;;;;;5097374;28;20031;-74
2021/08/11 08:06:06;;;;;;;4.22;2.95;;;;;;;;;;5097452;28;20387;-74
2021/08/11 08:08:32;;;;;;;5.25;3.42;;;21.10;99.90;;;;;;5096336;28;20021;-74
2021/08/11 08:10:59;;;;;;;6.07;3.00;;;21.20;99.90;;;;;;5097121;28;20035;-74
2021/08/11 08:13:24;;;;;;;3.55;2.70;;;21.10;99.90;;;;;;5097014;28;20115;-74
2021/08/11 08:15:52;;;;;;;5.45;3.00;;;21.30;99.90;;;;;;5097349;28;20112;-74
2021/08/11 08:18:22;;;;;;;4.35;3.25;;;21.40;99.90;;;;;;5097003;28;20027;-74
2021/08/11 08:20:53;;;;;;;5.45;2.90;;;21.40;99.90;;;;;;5097034;28;20097;-74
2021/08/11 08:23:19;;;;;;;4.57;3.50;;;21.30;99.90;;;;;;5096925;28;20399;-74
2021/08/11 08:25:46;;;;;;;3.08;2.03;;;21.50;99.90;;;;;;5095458;28;20024;-74
2021/08/11 08:28:12;;;;;;;5.88;3.38;;;;;;;;;;5095675;28;20471;-74
2021/08/11 08:30:39;;;;;;;3.30;2.53;;;22.40;99.90;;;;;;5096991;28;20027;-74
2021/08/11 08:33:05;;;;;;;4.03;2.92;;;23.00;99.90;;;;;;5096646;28;20062;-74
2021/08/11 08:35:31;;;;;;;3.88;2.58;;;23.40;99.90;;;;;;5096846;28;20075;-73
2021/08/11 08:37:57;;;;;;;4.75;2.95;;;24.20;99.90;;;;;;5096692;28;20549;-74
2021/08/11 08:40:36;;;;;;;4.47;2.40;;;24.50;99.90;;;;;;5096559;28;20055;-73
2021/08/11 08:43:02;;;;;;;3.45;2.53;;;25.40;99.90;;;;;;5096882;28;20020;-73
2021/08/11 08:45:28;;;;;;;3.95;2.20;;;25.50;99.90;;;;;;5096876;28;20027;-73
2021/08/11 08:47:55;;;;;;;4.38;2.22;;;25.80;99.90;;;;;;5096898;28;20468;-73
2021/08/11 08:50:22;;;;;;;4.20;1.95;;;26.20;99.90;;;;;;5096720;28;20016;-73
2021/08/11 08:52:50;;;;;;;5.57;2.60;;;26.70;99.90;;;;;;5096708;28;20071;-73
2021/08/11 08:55:17;;;;;;;3.42;2.53;;;27.10;99.90;;;;;;5096447;28;20028;-73
2021/08/11 08:57:44;;;;;;;3.47;1.77;;;27.20;99.90;;;;;;5096919;28;20051;-73
2021/08/11 09:00:10;;;;;;;5.53;2.33;;;27.40;99.90;;;;;;5096628;28;20024;-73
2021/08/11 09:02:38;;;;;;;2.67;2.05;;;27.60;99.90;;;;;;5096660;28;20541;-73
2021/08/11 09:05:09;;;;;;;3.38;2.65;;;27.80;99.90;;;;;;5095259;28;20295;-73
2021/08/11 09:07:41;;;;;;;2.65;1.80;;;27.80;99.90;;;;;;5096779;28;20023;-73
2021/08/11 09:10:23;;;;;;;4.95;1.88;;;27.70;99.90;;;;;;5096133;28;20032;-73
2021/08/11 09:12:51;;;;;;;3.38;1.85;;;27.90;99.90;;;;;;5096545;28;20150;-73
2021/08/11 09:15:37;;;;;;;3.05;2.15;;;28.10;99.90;;;;;;5096477;28;20023;-73
2021/08/11 09:18:24;;;;;;;7.45;1.88;;;28.20;99.90;;;;;;5095115;28;20017;-73
2021/08/11 09:21:10;;;;;;;3.05;1.63;;;28.20;99.90;;;;;;5100103;28;20067;-73
2021/08/11 09:23:42;;;;;;;6.28;2.50;;;28.30;99.90;;;;;;5100459;28;20019;-73
2021/08/11 09:26:13;;;;;;;2.95;2.13;;;28.50;99.70;;;;;;5098678;28;20162;-72
2021/08/11 09:28:41;;;;;;;3.35;2.35;;;28.50;99.90;;;;;;5100936;28;20020;-73
2021/08/11 09:31:23;;;;;;;3.55;2.38;;;28.90;99.90;;;;;;5100237;28;20024;-73
2021/08/11 09:33:51;;;;;;;6.53;1.70;;;29.10;99.00;;;;;;5100280;28;20108;-73
2021/08/11 09:36:17;;;;;;;3.80;1.77;;;29.20;98.50;;;;;;5100008;28;20439;-73
2021/08/11 09:38:54;;;;;;;5.05;2.30;;;29.50;98.50;;;;;;5098827;28;20365;-73
2021/08/11 09:41:20;;;;;;;4.00;1.45;;;29.90;97.80;;;;;;5099835;28;20087;-73
2021/08/11 09:43:45;;;;;;;2.78;1.90;;;30.80;94.80;;;;;;5100097;28;20449;-73
2021/08/11 09:46:11;;;;;;;1.70;1.50;;;31.10;95.30;;;;;;5100346;28;20447;-73
2021/08/11 09:48:42;;;;;;;4.03;1.95;;;31.10;95.50;;;;;;5098568;28;20012;-73
2021/08/11 09:51:10;;;;;;;4.10;2.10;;;30.60;94.60;;;;;;5099992;28;20395;-73
2021/08/11 09:53:41;;;;;;;2.55;1.80;;;30.00;94.60;;;;;;5099772;28;20076;-73
2021/08/11 09:56:11;;;;;;;3.05;1.70;;;30.00;94.80;;;;;;5099655;28;20024;-73
2021/08/11 09:59:02;;;;;;;2.90;1.58;;;29.70;94.50;;;;;;5098281;28;20024;-72
2021/08/11 10:01:28;;;;;;;5.80;1.77;;;29.30;95.00;;;;;;5098223;28;20032;-73
2021/08/11 10:04:06;;;;;;;4.07;2.00;;;29.10;95.20;;;;;;5099928;28;20020;-72
2021/08/11 10:06:34;;;;;;;4.45;2.53;;;29.50;96.60;;;;;;5099641;28;20104;-72
2021/08/11 10:09:16;;;;;;;4.65;2.42;;;30.40;95.70;;;;;;5099685;28;20425;-73
2021/08/11 10:11:47;;;;;;;2.28;1.30;;;29.80;94.00;;;;;;5099312;28;20089;-72
2021/08/11 10:14:13;;;;;;;3.33;1.95;;;;;;;;;;5099755;28;20108;-73
2021/08/11 10:16:40;;;;;;;6.13;2.20;;;29.10;93.60;;;;;;5099459;28;20024;-72
2021/08/11 10:19:07;;;;;;;4.28;1.77;;;29.00;93.60;;;;;;5099488;28;20490;-72
2021/08/11 10:21:35;;;;;;;4.97;2.10;;;;;;;;;;5099059;28;20035;-72
2021/08/11 10:24:01;;;;;;;3.15;1.85;;;27.00;95.90;;;;;;5099299;28;20027;-72
2021/08/11 10:26:28;;;;;;;1.95;1.63;;;27.00;98.10;;;;;;5097408;28;20020;-73
2021/08/11 10:28:54;;;;;;;3.95;1.77;;;27.60;97.30;;;;;;5099322;28;20016;-72
2021/08/11 10:31:22;;;;;;;3.88;1.73;;;28.70;95.90;;;;;;5098062;28;20081;-72
2021/08/11 10:33:51;;;;;;;2.08;1.35;;;29.60;95.40;;;;;;5099233;28;20418;-72
2021/08/11 10:36:17;;;;;;;4.05;1.45;;;30.40;94.20;;;;;;5098787;28;20065;-73
2021/08/11 10:38:45;;;;;;;2.50;1.50;;;31.10;92.70;;;;;;5099077;28;20031;-72
2021/08/11 10:41:11;;;;;;;2.30;1.45;;;31.40;91.60;;;;;;5098429;28;21084;-73
2021/08/11 10:43:37;;;;;;;2.67;1.25;;;31.60;91.80;;;;;;5098947;28;20027;-72
2021/08/11 10:46:10;;;;;;;2.65;1.65;;;31.90;88.50;;;;;;5098697;28;20020;-73
2021/08/11 10:48:36;;;;;;;2.08;1.33;;;31.60;89.80;;;;;;5098754;28;20127;-73
2021/08/11 10:51:02;;;;;;;2.92;1.73;;;31.90;89.40;;;;;;5098605;28;20056;-72
2021/08/11 10:53:28;;;;;;;2.53;1.70;;;32.20;88.40;;;;;;5097243;28;20473;-72
2021/08/11 10:55:56;;;;;;;2.00;1.27;;;32.70;86.70;;;;;;5098448;28;20031;-72
2021/08/11 10:58:44;;;;;;;2.97;1.40;;;32.80;87.00;;;;;;5098591;28;20027;-73
2021/08/11 11:01:33;;;;;;;3.38;1.73;;;33.10;99.90;;;;;;5098560;28;20016;-73
2021/08/11 11:04:01;;;;;;;1.52;1.20;;;33.00;98.80;;;;;;5098526;28;20069;-73
2021/08/11 11:06:50;;;;;;;2.20;1.15;;;32.90;99.90;;;;;;5098438;28;20024;-73
2021/08/11 11:09:18;;;;;;;7.43;2.40;;;32.70;97.90;;;;;;5098450;28;20070;-72
2021/08/11 11:11:45;;;;;;;2.10;1.40;;;32.70;98.60;;;;;;5097993;28;20445;-72
2021/08/11 11:14:48;;;;;;;2.60;1.05;;;32.90;98.20;;;;;;5098528;28;20028;-72
2021/08/11 11:17:15;;;;;;;2.83;1.13;;;33.10;97.40;;;;;;5095909;28;20063;-73
2021/08/11 11:20:07;;;;;;;1.55;1.23;;;33.20;97.10;;;;;;5098386;28;20028;-73
2021/08/11 11:22:49;;;;;;;2.65;1.00;;;34.40;80.70;;;;;;5098135;28;20028;-72
2021/08/11 11:25:18;;;;;;;2.80;1.42;;;34.50;80.70;;;;;;5097861;28;20034;-73
2021/08/11 11:27:44;;;;;;;2.97;1.00;;;34.70;78.30;;;;;;5098080;28;20069;-73
2021/08/11 11:30:15;;;;;;;1.42;0.90;;;34.70;78.50;;;;;;5098234;28;20016;-73
2021/08/11 11:32:41;;;;;;;3.63;1.77;;;34.40;76.80;;;;;;5096484;28;20066;-72
2021/08/11 11:35:40;;;;;;;2.45;1.30;;;34.50;75.40;;;;;;5098030;28;20048;-73
2021/08/11 11:38:07;;;;;;;1.50;0.98;;;34.50;75.50;;;;;;5074830;28;20039;-73
2021/08/11 11:40:56;;;;;;;1.58;1.05;;;34.70;75.60;;;;;;5097424;28;20028;-72
2021/08/11 11:43:23;;;;;;;2.13;1.23;;;34.10;76.60;;;;;;5096271;28;20042;-72
2021/08/11 11:45:49;;;;;;;2.00;1.00;;;33.60;75.60;;;;;;5097694;28;20039;-72
2021/08/11 11:48:15;;;;;;;3.72;1.45;;;33.70;77.60;;;;;;5097782;28;20024;-72
2021/08/11 11:50:46;;;;;;;1.25;1.15;;;33.80;75.20;;;;;;5097741;28;20098;-72
2021/08/11 11:53:23;;;;;;;1.15;0.90;;;33.70;72.70;;;;;;5097675;28;20024;-72
2021/08/11 11:55:49;;;;;;;4.47;1.48;;;33.30;74.20;;;;;;5097192;28;20070;-72
2021/08/11 11:58:20;;;;;;;2.17;1.15;;;33.30;74.90;;;;;;5097632;28;20403;-72
2021/08/11 12:01:04;;;;;;;2.22;1.15;;;33.90;76.00;;;;;;5097582;28;20039;-72
2021/08/11 12:03:40;;;;;;;2.80;1.48;;;34.40;75.20;;;;;;5097448;28;20024;-72
2021/08/11 12:06:08;;;;;;;1.25;1.00;;;35.10;76.00;;;;;;5097443;28;20020;-72
2021/08/11 12:08:33;;;;;;;2.45;1.70;;;35.80;74.60;;;;;;5097161;28;20012;-72
2021/08/11 12:11:08;;;;;;;11.35;2.55;;;35.80;73.20;;;;;;5096954;28;20024;-72
2021/08/11 12:13:51;;;;;;;2.60;1.50;;;35.90;72.80;;;;;;5097148;28;20605;-73
2021/08/11 12:16:19;;;;;;;2.40;1.55;;;35.80;72.90;;;;;;5097208;28;20058;-73
2021/08/11 12:18:47;;;;;;;3.47;1.80;;;35.30;71.30;;;;;;5097196;28;20020;-72
2021/08/11 12:21:16;;;;;;;2.50;1.33;;;34.80;71.00;;;;;;5097025;28;20116;-72
2021/08/11 12:23:42;;;;;;;3.55;1.48;;;;;;;;;;5095834;28;20480;-72
2021/08/11 12:26:15;;;;;;;1.60;1.40;;;34.40;73.50;;;;;;5096529;28;20047;-72
2021/08/11 12:28:46;;;;;;;1.83;1.30;;;34.00;73.30;;;;;;5097343;28;20016;-72
2021/08/11 12:31:23;;;;;;;2.25;1.60;;;34.10;75.00;;;;;;5095675;28;20028;-72
2021/08/11 12:33:51;;;;;;;2.55;1.35;;;34.60;74.90;;;;;;5088624;28;20035;-72
2021/08/11 12:36:22;;;;;;;3.45;1.95;;;35.10;73.70;;;;;;5096672;28;20071;-72
2021/08/11 12:39:00;;;;;;;2.13;1.90;;;34.70;72.30;;;;;;5096760;28;20046;-72
2021/08/11 12:41:26;;;;;;;2.05;1.55;;;33.40;73.50;;;;;;5096562;28;20031;-72
2021/08/11 12:43:55;;;;;;;3.15;1.55;;;33.40;74.60;;;;;;5096893;28;20047;-72
2021/08/11 12:46:42;;;;;;;3.15;1.67;;;33.60;75.90;;;;;;5096901;28;20369;-72
2021/08/11 12:49:42;;;;;;;4.05;1.20;;;34.10;75.40;;;;;;5096632;28;20020;-72
2021/08/11 12:52:17;;;;;;;2.83;1.83;;;34.70;75.10;;;;;;5096648;28;20091;-72
2021/08/11 12:55:05;;;;;;;1.88;1.60;;;34.50;74.70;;;;;;5096257;28;20103;-72
2021/08/11 12:57:40;;;;;;;2.03;1.35;;;34.30;75.40;;;;;;5096802;28;20016;-72
2021/08/11 13:00:10;;;;;;;3.72;1.85;;;34.70;76.70;;;;;;5096599;28;20020;-72
2021/08/11 13:02:37;;;;;;;5.05;2.22;;;;;;;;;;5096552;28;20028;-73
2021/08/11 13:05:11;;;;;;;2.53;1.55;;;31.00;75.00;;;;;;5096563;28;20017;-72